Boulder City, Nevada Weather observations

Data are for observation ending at time listed.
 Day   Time    Ave.   Ave.  Ave.  Vector   Max.   Stn.    Total    Solar   Ave.  
  of    of     Air    Rel.  Wind   Wind    Wind   Baro.  Precip.   Rad.    Soil  
Year   Day     Temp.  Hum.  Speed  Dir.    Gust   Pres.                    Temp. 
2015   (PST)    F      %     mph   deg.    mph     mb.     in.     W/m2     F   
------------------------------------------------------------------------------
  26   22:50   52.5    84    3.3   224      5.6   936.6    0.00       0    56.4
  26   23:00   52.6    83    3.1   216      6.4   936.8    0.01       0    56.4
  26   23:10   52.5    83    3.9   226      5.2   936.7    0.00       0    56.3
  26   23:20   52.4    83    4.4   216      6.9   936.7    0.00       0    56.3
  26   23:30   52.5    83    4.3   210      6.5   936.9    0.00       0    56.3
  26   23:40   52.3    83    4.6   218      7.1   937.2    0.01       0    56.3
  26   23:50   51.8    86    3.5   217      6.1   937.4    0.00       0    56.2
  27    0:00   51.4    87    4.2   215      7.1   937.7    0.02       0    56.2
  27    0:10   51.1    89    4.0   206      8.1   937.7    0.02       0    56.2
  27    0:20   50.7    90    5.2    13     10.0   936.4    0.03       0    56.1
  27    0:30   50.5    92    5.3   221     11.7   937.1    0.01       0    56.1
  27    0:40   50.7    92    2.7   202      5.8   937.2    0.00       0    55.9
  27    0:50   50.8    92    3.4   198      6.1   937.3    0.00       0    55.7
  27    1:00   50.7    92    4.1   210      6.1   937.4    0.00       0    55.7
  27    1:10   50.3    92    3.0   229      5.7   937.5    0.00       0    55.6
  27    1:20   50.2    92    3.5   230      5.4   937.4    0.01       0    55.6
  27    1:30   50.2    92    3.3   224      4.9   937.4    0.00       0    55.5
  27    1:40   50.3    92    2.1   208      3.9   937.5    0.00       0    55.5
  27    1:50   50.5    92    2.5   205      3.9   937.6    0.00       0    55.5
  27    2:00   50.6    92    2.6   201      4.3   937.6    0.00       0    55.4
  27    2:10   50.6    92    1.2   201      3.9   937.7    0.00       0    55.4
  27    2:20   50.6    92    0.6    15      1.6   937.7    0.01       0    55.4
  27    2:30   50.7    92    0.2    23      1.1   937.6    0.00       0    55.4
  27    2:40   50.7    92    0.9    46      2.4   937.8    0.00       0    55.3
  27    2:50   50.5    93    2.0    15      4.3   937.8    0.00       0    55.3
  27    3:00   50.4    93    2.1    20      4.2   937.7    0.00       0    55.3
  27    3:10   50.3    94    1.9    29      3.5   937.6    0.00       0    55.2
  27    3:20   50.2    94    2.0    22      3.8   937.5    0.00       0    55.2
  27    3:30   50.2    94    0.8    36      2.7   937.5    0.00       0    55.2
  27    3:40   50.3    94    0.7    48      1.7   937.5    0.00       0    55.2
  27    3:50   50.3    94    0.4    96      1.5   937.5    0.00       0    55.2
  27    4:00   50.3    94    0.1    55      0.9   937.6    0.00       0    55.1
  27    4:10   50.2    94    0.0    48      0.8   937.7    0.00       0    55.1
  27    4:20   50.1    94    0.1    23      1.5   937.7    0.00       0    55.1
  27    4:30   49.8    94    0.5    12      2.0   937.6    0.00       0    55.1
  27    4:40   49.9    94    0.8    21      2.0   937.6    0.00       0    55.1
  27    4:50   49.9    94    1.6    22      3.0   937.5    0.00       0    55.0
  27    5:00   49.7    94    1.8    16      3.7   937.7    0.00       0    55.0
  27    5:10   49.9    94    0.7     4      2.5   937.8    0.00       0    55.0
  27    5:20   49.7    93    2.1    14      3.9   937.8    0.00       0    55.0
  27    5:30   49.7    93    1.6    20      2.7   937.9    0.00       0    55.0
  27    5:40   49.8    93    0.9    35      1.8   938.0    0.00       0    54.9
  27    5:50   49.9    93    0.9    22      1.8   938.1    0.00       0    54.9
  27    6:00   49.9    93    1.0    22      2.3   938.2    0.00       0    54.9
  27    6:10   50.0    93    0.6    54      1.5   938.2    0.00       0    54.9
  27    6:20   50.1    93    0.9    47      2.0   938.4    0.00       0    54.8
  27    6:30   50.1    93    0.3    64      1.5   938.5    0.00       0    54.8
  27    6:40   50.1    93    0.0     0      0.0   938.7    0.00       0    54.8
  27    6:50   50.1    93    0.3   250      1.5   938.8    0.00       0    54.8
  27    7:00   50.3    93    0.9   210      1.8   939.0    0.00       2    54.8
  27    7:10   50.5    93    0.1   233      0.9   939.1    0.00       5    54.8
  27    7:20   50.5    93    0.1   176      0.9   939.2    0.00       7    54.8
  27    7:30   50.8    92    0.0    24      0.4   939.3    0.00      13    54.7
  27    7:40   50.9    92    0.5     4      1.4   939.2    0.00      30    54.7
  27    7:50   51.1    92    1.0    16      2.2   939.3    0.00      47    54.7
  27    8:00   51.1    92    0.9    25      2.1   939.4    0.00      41    54.7
  27    8:10   51.4    92    1.2    35      2.9   939.4    0.00      42    54.7
  27    8:20   51.5    92    1.3    10      2.3   939.5    0.00      69    54.7
  27    8:30   51.6    91    0.9    16      2.3   939.6    0.00     100    54.7
  27    8:40   51.8    91    1.1    49      2.3   939.6    0.00     126    54.7
  27    8:50   52.2    90    0.3    36      1.4   939.7    0.00     131    54.7
  27    9:00   52.9    89    1.1   221      3.3   939.7    0.00     172    54.7
  27    9:10   53.4    88    1.3    92      3.5   939.8    0.00     188    54.8
  27    9:20   53.7    86    1.5    99      3.9   939.9    0.00     148    54.8
  27    9:30   53.7    86    1.5    65      3.8   940.0    0.00     151    54.9
  27    9:40   53.8    85    2.8   128      6.1   940.1    0.00     176    55.0
  27    9:50   53.9    83    2.5   134      6.9   940.2    0.00     207    55.0
  27   10:00   54.6    83    2.7   130      5.6   940.3    0.00     171    55.1
  27   10:10   54.4    82    2.9    89      6.6   940.2    0.00     170    55.2
  27   10:20   55.3    82    2.4    90      6.4   940.1    0.00     302    55.3
  27   10:30   56.6    79    2.8    90      7.4   940.2    0.00     385    55.4
  27   10:40   56.9    78    3.3   110      6.8   940.3    0.00     273    55.5
  27   10:50   56.3    78    4.1    96      9.1   940.3    0.00     326    55.5
  27   11:00   56.0    79    3.2   114      6.4   940.3    0.00     208    55.6
  27   11:10   55.9    79    2.3   110      7.1   940.1    0.00     175    55.7
  27   11:20   56.3    79    2.0    44      4.6   939.9    0.00     268    55.8
  27   11:30   56.3    78    3.5    13      6.1   939.7    0.00     203    55.9
  27   11:40   55.7    81    3.3    12      7.8   939.6    0.00     171    56.0
  27   11:50   55.2    83    3.9    14      7.0   939.3    0.00     208    56.1
  27   12:00   55.4    83    3.3    22      6.3   939.2    0.00     226    56.2
  27   12:10   55.4    84    3.1    27      5.8   939.0    0.00     270    56.2
  27   12:20   56.0    82    2.0    15      4.8   938.8    0.00     251    56.3
  27   12:30   56.2    81    2.7    21      5.3   938.7    0.00     220    56.4
  27   12:40   56.4    80    2.2    20      4.3   938.6    0.00     148    56.4
  27   12:50   56.3    79    1.7    22      4.6   938.6    0.00     131    56.5
  27   13:00   56.5    79    2.0    23      4.5   938.5    0.00     163    56.5
  27   13:10   57.6    77    2.4    34      5.8   938.3    0.00     428    56.6
  27   13:20   59.3    73    1.9    38      4.6   938.2    0.00     436    56.6
  27   13:30   58.5    74    2.4    13      4.5   938.3    0.00     208    56.7
  27   13:40   58.7    73    1.9     1      4.5   938.2    0.00     311    56.7
  27   13:50   58.0    74    1.5    25      5.1   938.1    0.00     120    56.8
  27   14:00   58.1    74    1.8    21      3.7   937.9    0.00     148    56.8
  27   14:10   58.6    73    1.5    29      2.9   937.9    0.00     175    56.8
  27   14:20   60.1    70    1.5    15      4.1   937.7    0.00     339    56.8
  27   14:30   61.5    67    2.1    31      4.8   937.8    0.00     380    56.9
  27   14:40   60.8    69    2.9    11      5.8   937.9    0.00     277    56.9
  27   14:50   60.0    69    1.7   357      4.6   938.1    0.01     129    56.9
  27   15:00   59.6    71    1.7     6      4.1   938.0    0.00     165    56.9
  27   15:10   60.7    68    1.7   359      3.4   937.9    0.00     281    56.9
  27   15:20   61.6    67    2.6   359      5.6   937.8    0.00     337    56.9
  27   15:30   61.5    67    2.6    11      6.4   937.9    0.00     281    56.9
  27   15:40   62.3    64    1.4   354      4.6   937.9    0.00     308    56.9
  27   15:50   62.4    61    2.0    15      4.9   937.9    0.00     236    57.0
  27   16:00   62.2    62    2.1    41      4.4   937.9    0.00     168    57.0
  27   16:10   62.6    64    2.3    33      4.9   937.9    0.00     179    57.0
  27   16:20   62.1    66    1.7    42      3.9   937.9    0.00     112    57.0
  27   16:30   61.2    66    2.1    42      5.2   937.8    0.00      60    57.0
  27   16:40   60.5    63    2.9    90      5.8   937.7    0.00      21    57.0
  27   16:50   59.6    64    3.0    97      5.6   937.6    0.00      14    57.0
  27   17:00   59.1    65    2.1    89      5.1   937.5    0.00      10    57.0
  27   17:10   58.6    65    2.2   106      4.5   937.5    0.00       4    57.0
  27   17:20   58.4    65    2.2   116      3.7   937.4    0.00       2    57.0
  27   17:30   58.0    66    2.4   134      5.1   937.4    0.00       0    56.9
  27   17:40   57.9    66    2.2   148      4.9   937.4    0.00       0    56.8
  27   17:50   57.9    66    2.1   182      4.5   937.5    0.00       0    56.8
  27   18:00   57.3    69    1.7   217      2.3   937.5    0.00       0    56.8
  27   18:10   55.8    73    2.4   217      3.1   937.5    0.00       0    56.7
  27   18:20   54.9    76    2.3   207      3.1   937.5    0.00       0    56.6
  27   18:30   54.8    76    2.2   220      5.1   937.5    0.00       0    56.6
  27   18:40   54.9    76    1.8   236      3.7   937.5    0.00       0    56.5
  27   18:50   55.1    75    1.7   252      2.7   937.6    0.00       0    56.4
  27   19:00   54.8    76    1.5   235      2.8   937.6    0.00       0    56.4
  27   19:10   54.2    78    1.3   254      2.2   937.6    0.00       0    56.3
  27   19:20   53.9    79    1.7   248      2.3   937.6    0.00       0    56.2
  27   19:30   53.4    81    2.0   224      2.9   937.6    0.00       0    56.2
  27   19:40   53.3    81    1.7   230      3.4   937.5    0.00       0    56.1
  27   19:50   53.5    79    2.1   243      3.4   937.5    0.00       0    56.0
  27   20:00   53.4    79    1.6   226      2.3   937.5    0.00       0    55.9
  27   20:10   53.2    79    1.8   246      2.9   937.6    0.00       0    55.9
  27   20:20   53.1    79    1.7   234      2.6   937.7    0.00       0    55.8
  27   20:30   52.5    80    1.9   211      2.8   937.8    0.00       0    55.7
  27   20:40   51.9    82    1.9   229      2.8   937.9    0.00       0    55.7
  27   20:50   52.1    82    3.1   250      4.7   937.9    0.00       0    55.6
  27   21:00   53.3    78    2.9   251      4.5   937.9    0.00       0    55.6
  27   21:10   52.4    80    2.4   217      3.3   937.9    0.00       0    55.5
  27   21:20   51.3    83    1.7   206      2.7   937.9    0.00       0    55.4
  27   21:30   51.0    84    1.0   202      2.7   938.0    0.00       0    55.4
  27   21:40   51.0    84    0.9   233      2.9   938.0    0.00       0    55.3
  27   21:50   50.7    85    1.2   284      2.6   938.1    0.00       0    55.2
  27   22:00   50.8    85    1.1   202      2.2   938.1    0.00       0    55.2
  27   22:10   50.6    85    1.7   234      2.3   938.2    0.00       0    55.1
  27   22:20   50.2    85    1.8   230      2.6   938.4    0.00       0    55.0
  27   22:30   49.7    86    1.9   234      2.5   938.4    0.00       0    55.0
  27   22:40   49.2    88    1.9   217      2.5   938.5    0.00       0    54.9

Return to Boulder City, Nevada graphs page.


Western Regional Climate Center,wrcc@dri.edu